Time;durP1;ratioP1;P1;durP2;ratioP2;P2;SDS_P1;SDS_P2;PMS_P1;PMS_P2;Temp;Humidity;BMP_temperature;BMP_pressure;BME280_temperature;BME280_humidity;BME280_pressure;Samples;Min_cycle;Max_cycle;Signal;HPM_P1;HPM_P2
2022/07/05 00:01:01;;;;;;;9.27;5.95;;;;;;;;;;5043904;28;20056;-76
2022/07/05 00:03:27;;;;;;;7.85;6.82;;;;;;;;;;5038566;28;20482;-75
2022/07/05 00:05:53;;;;;;;10.95;6.47;;;;;;;;;;5030593;28;20030;-76
2022/07/05 00:08:19;;;;;;;8.02;6.10;;;;;;;;;;5015095;28;20038;-75
2022/07/05 00:10:44;;;;;;;9.98;7.32;;;;;;;;;;5011244;28;20026;-76
2022/07/05 00:13:10;;;;;;;11.00;6.50;;;;;;;;;;5011786;28;20050;-75
2022/07/05 00:15:36;;;;;;;12.00;6.18;;;;;;;;;;5011855;28;20120;-75
2022/07/05 00:18:02;;;;;;;12.65;6.32;;;;;;;;;;5012066;28;20087;-76
2022/07/05 00:20:28;;;;;;;8.05;5.55;;;;;;;;;;5026754;28;20030;-75
2022/07/05 00:22:53;;;;;;;10.15;6.00;;;;;;;;;;5026390;28;20149;-76
2022/07/05 00:25:19;;;;;;;9.65;5.15;;;;;;;;;;5026594;28;20109;-76
2022/07/05 00:27:45;;;;;;;6.38;5.22;;;;;;;;;;5026149;28;20025;-75
2022/07/05 00:30:13;;;;;;;7.50;5.63;;;;;;;;;;5026392;28;20029;-76
2022/07/05 00:32:39;;;;;;;5.97;5.38;;;;;;;;;;5011105;28;20029;-75
2022/07/05 00:35:06;;;;;;;8.23;5.38;;;;;;;;;;5026277;28;20030;-75
2022/07/05 00:37:32;;;;;;;7.63;5.50;;;;;;;;;;5026350;28;20389;-75
2022/07/05 00:39:58;;;;;;;8.82;5.20;;;;;;;;;;5026307;28;20028;-76
2022/07/05 00:42:23;;;;;;;6.40;5.15;;;;;;;;;;5026521;28;20034;-75
2022/07/05 00:44:49;;;;;;;11.80;5.47;;;;;;;;;;5026128;28;20477;-75
2022/07/05 00:47:14;;;;;;;7.28;4.97;;;;;;;;;;5026502;28;20112;-76
2022/07/05 00:49:41;;;;;;;9.20;5.85;;;;;;;;;;5025962;28;20500;-76
2022/07/05 00:52:07;;;;;;;10.82;5.60;;;;;;;;;;5026066;28;20061;-75
2022/07/05 00:54:36;;;;;;;7.50;5.65;;;;;;;;;;5009355;28;20048;-75
2022/07/05 00:57:02;;;;;;;11.38;5.57;;;;;;;;;;5025976;28;20127;-76
2022/07/05 00:59:28;;;;;;;5.45;4.90;;;;;;;;;;5010571;28;20063;-80
2022/07/05 01:01:54;;;;;;;6.30;4.63;;;;;;;;;;5012447;28;20372;-79
2022/07/05 01:04:19;;;;;;;7.32;5.10;;;;;;;;;;5022397;28;20022;-79
2022/07/05 01:06:47;;;;;;;5.90;4.43;;;;;;;;;;5020631;28;20022;-79
2022/07/05 01:09:15;;;;;;;8.63;4.90;;;;;;;;;;5014714;28;20029;-79
2022/07/05 01:11:43;;;;;;;5.82;4.65;;;;;;;;;;5010713;28;20022;-79
2022/07/05 01:14:11;;;;;;;7.38;5.30;;;;;;;;;;5010666;28;20075;-79
2022/07/05 01:16:40;;;;;;;6.70;4.53;;;;;;;;;;5025416;28;20021;-79
2022/07/05 01:19:09;;;;;;;7.72;4.93;;;;;;;;;;5026119;28;20022;-79
2022/07/05 01:21:41;;;;;;;8.23;5.45;;;;;;;;;;5009280;28;20034;-79
2022/07/05 01:24:11;;;;;;;5.43;4.93;;;;;;;;;;5029656;28;20053;-79
2022/07/05 01:26:38;;;;;;;6.68;5.38;;;;;;;;;;5027705;28;20029;-78
2022/07/05 01:29:04;;;;;;;7.15;5.20;;;;;;;;;;5010300;28;20040;-78
2022/07/05 01:31:29;;;;;;;5.95;5.35;;;;;;;;;;5024997;28;20386;-78
2022/07/05 01:33:55;;;;;;;5.38;4.82;;;;;;;;;;5025302;28;20022;-78
2022/07/05 01:36:21;;;;;;;5.97;4.85;;;;;;;;;;5008873;28;20030;-78
2022/07/05 01:38:47;;;;;;;5.90;5.38;;;;;;;;;;5010089;28;20026;-79
2022/07/05 01:41:13;;;;;;;6.95;5.22;;;;;;;;;;5010241;28;20215;-78
2022/07/05 01:43:38;;;;;;;7.35;5.78;;;;;;;;;;5025023;28;20117;-79
2022/07/05 01:46:05;;;;;;;9.27;5.43;;;;;;;;;;5024824;28;20073;-79
2022/07/05 01:48:34;;;;;;;7.18;5.00;;;;;;;;;;5025354;28;20022;-79
2022/07/05 01:51:32;;;;;;;8.23;5.90;;;;;;;;;;5008596;28;20108;-79
2022/07/05 01:53:59;;;;;;;9.40;4.88;;;;;;;;;;4992884;28;20041;-79
2022/07/05 01:56:25;;;;;;;8.68;5.18;;;;;;;;;;5008719;28;20039;-79
2022/07/05 01:58:51;;;;;;;7.07;5.57;;;;;;;;;;5010369;28;20033;-79
2022/07/05 02:01:35;;;;;;;6.78;5.60;;;;;;;;;;5025417;28;20393;-80
2022/07/05 02:04:01;;;;;;;5.90;4.97;;;;;;;;;;5009082;28;20021;-79
2022/07/05 02:06:27;;;;;;;6.05;5.45;;;;;;;;;;5008585;28;20548;-79
2022/07/05 02:08:52;;;;;;;6.15;4.68;;;;;;;;;;5010039;28;20121;-79
2022/07/05 02:11:18;;;;;;;4.90;4.40;;;;;;;;;;5008409;28;20485;-79
2022/07/05 02:13:43;;;;;;;6.28;5.05;;;;;;;;;;5009843;28;20052;-79
2022/07/05 02:16:09;;;;;;;6.47;5.20;;;;;;;;;;5008833;28;20030;-80
2022/07/05 02:18:34;;;;;;;7.03;4.53;;;;;;;;;;5008206;28;20117;-79
2022/07/05 02:21:00;;;;;;;5.43;4.50;;;;;;;;;;5008444;28;20389;-79
2022/07/05 02:23:25;;;;;;;10.60;4.35;;;;;;;;;;5024490;28;20111;-79
2022/07/05 02:25:51;;;;;;;6.50;4.63;;;;;;;;;;5010200;28;20029;-80
2022/07/05 02:28:17;;;;;;;7.75;5.18;;;;;;;;;;5009779;28;20049;-79
2022/07/05 02:30:43;;;;;;;5.32;4.82;;;;;;;;;;5009554;28;20061;-79
2022/07/05 02:33:08;;;;;;;8.70;5.15;;;;;;;;;;5026560;28;20022;-80
2022/07/05 02:35:33;;;;;;;4.45;4.05;;;;;;;;;;5014584;28;20033;-79
2022/07/05 02:37:59;;;;;;;7.65;4.32;;;;;;;;;;5013101;28;20030;-79
2022/07/05 02:40:24;;;;;;;9.40;4.45;;;;;;;;;;5011705;28;20049;-79
2022/07/05 02:42:50;;;;;;;5.38;4.75;;;;;;;;;;5028216;28;20124;-79
2022/07/05 02:45:15;;;;;;;7.85;4.80;;;;;;;;;;5028010;28;20117;-79
2022/07/05 02:47:41;;;;;;;8.77;4.30;;;;;;;;;;5011340;28;20093;-79
2022/07/05 02:50:08;;;;;;;9.35;5.20;;;;;;;;;;5011786;28;20036;-79
2022/07/05 02:52:35;;;;;;;8.38;4.90;;;;;;;;;;5027721;28;20508;-79
2022/07/05 02:55:01;;;;;;;5.22;4.25;;;;;;;;;;5013012;28;20470;-79
2022/07/05 02:57:28;;;;;;;7.55;4.53;;;;;;;;;;5011282;28;20328;-79
2022/07/05 02:59:54;;;;;;;5.38;4.03;;;;;;;;;;5027982;28;20505;-79
2022/07/05 03:02:21;;;;;;;9.30;4.47;;;;;;;;;;5011362;28;20064;-79
2022/07/05 03:04:46;;;;;;;9.40;4.13;;;;;;;;;;5012555;28;20034;-79
2022/07/05 03:07:12;;;;;;;5.22;3.75;;;;;;;;;;5027801;28;20041;-79
2022/07/05 03:09:37;;;;;;;6.15;4.13;;;;;;;;;;5012498;28;20512;-79
2022/07/05 03:12:03;;;;;;;5.47;3.75;;;;;;;;;;5019935;28;20018;-78
2022/07/05 03:14:29;;;;;;;11.73;4.10;;;;;;;;;;5023303;28;20474;-79
2022/07/05 03:16:55;;;;;;;8.95;4.15;;;;;;;;;;5011790;28;20026;-79
2022/07/05 03:19:20;;;;;;;8.45;4.20;;;;;;;;;;5011318;28;20040;-79
2022/07/05 03:21:46;;;;;;;6.28;4.13;;;;;;;;;;5027404;28;20029;-79
2022/07/05 03:24:12;;;;;;;6.68;4.50;;;;;;;;;;5027532;28;20049;-79
2022/07/05 03:26:38;;;;;;;9.95;3.92;;;;;;;;;;5027574;28;20032;-79
2022/07/05 03:29:03;;;;;;;5.13;3.58;;;;;;;;;;5011080;28;20124;-79
2022/07/05 03:31:29;;;;;;;9.55;3.92;;;;;;;;;;5027819;28;20026;-78
2022/07/05 03:33:56;;;;;;;3.55;3.28;;;;;;;;;;5012152;28;20157;-79
2022/07/05 03:36:22;;;;;;;7.78;4.22;;;;;;;;;;5012231;28;20026;-79
2022/07/05 03:38:47;;;;;;;5.03;3.63;;;;;;;;;;5011990;28;20029;-79
2022/07/05 03:41:13;;;;;;;6.15;3.50;;;;;;;;;;5011936;28;20029;-79
2022/07/05 03:43:38;;;;;;;3.55;3.17;;;;;;;;;;5012792;28;20026;-79
2022/07/05 03:46:04;;;;;;;8.93;3.63;;;;;;;;;;5011371;28;20030;-79
2022/07/05 03:48:29;;;;;;;5.53;3.55;;;;;;;;;;5012077;28;20021;-79
2022/07/05 03:50:55;;;;;;;8.85;3.13;;;;;;;;;;5012171;28;20061;-79
2022/07/05 03:53:20;;;;;;;5.57;3.38;;;;;;;;;;5012237;28;20021;-78
2022/07/05 03:55:46;;;;;;;5.03;3.38;;;;;;;;;;5028316;28;20056;-79
2022/07/05 03:58:11;;;;;;;7.97;3.58;;;;;;;;;;5012814;28;20079;-79
2022/07/05 04:00:37;;;;;;;7.55;3.28;;;;;;;;;;5027828;28;20021;-77
2022/07/05 04:03:02;;;;;;;5.15;2.97;;;;;;;;;;5011687;28;20054;-78
2022/07/05 04:05:28;;;;;;;7.05;2.95;;;;;;;;;;5011762;28;20029;-77
2022/07/05 04:07:55;;;;;;;4.22;3.45;;;;;;;;;;5011652;28;20037;-79
2022/07/05 04:10:22;;;;;;;7.05;3.13;;;;;;;;;;5011983;28;20254;-78
2022/07/05 04:12:47;;;;;;;5.93;3.28;;;;;;;;;;5011419;28;20108;-78
2022/07/05 04:15:14;;;;;;;4.43;3.40;;;;;;;;;;5010291;28;20026;-79
2022/07/05 04:18:06;;;;;;;8.27;3.17;;;;;;;;;;5009822;28;20124;-78
2022/07/05 04:20:32;;;;;;;4.80;3.30;;;;;;;;;;5004844;28;20034;-78
2022/07/05 04:22:57;;;;;;;4.57;3.03;;;;;;;;;;5025755;28;20038;-79
2022/07/05 04:25:24;;;;;;;5.78;3.20;;;;;;;;;;5011415;28;20410;-78
2022/07/05 04:27:51;;;;;;;5.57;3.33;;;;;;;;;;5026253;28;20032;-78
2022/07/05 04:30:18;;;;;;;7.22;2.97;;;;;;;;;;5026586;28;20068;-79
2022/07/05 04:32:44;;;;;;;6.93;3.13;;;;;;;;;;5009688;28;20029;-79
2022/07/05 04:35:10;;;;;;;6.55;3.22;;;;;;;;;;5009909;28;20034;-79
2022/07/05 04:37:36;;;;;;;7.30;3.17;;;;;;;;;;5026428;28;20032;-79
2022/07/05 04:40:07;;;;;;;4.72;3.13;;;;;;;;;;5011628;28;20022;-79
2022/07/05 04:42:32;;;;;;;5.45;2.75;;;;;;;;;;5011131;28;20014;-79
2022/07/05 04:44:58;;;;;;;7.35;2.92;;;;;;;;;;5026252;28;20095;-79
2022/07/05 04:47:25;;;;;;;6.72;3.17;;;;;;;;;;5011072;28;20200;-79
2022/07/05 04:49:51;;;;;;;9.80;3.10;;;;;;;;;;5025832;28;20038;-78
2022/07/05 04:52:17;;;;;;;4.32;2.78;;;;;;;;;;5011199;28;20018;-79
2022/07/05 04:54:42;;;;;;;5.45;3.20;;;;;;;;;;5013652;28;20061;-79
2022/07/05 04:57:08;;;;;;;11.02;3.75;;;;;;;;;;5021112;28;20022;-79
2022/07/05 04:59:34;;;;;;;4.28;3.15;;;;;;;;;;5049089;28;20048;-77
2022/07/05 05:01:59;;;;;;;7.07;2.90;;;;;;;;;;5031774;28;20773;-76
2022/07/05 05:04:25;;;;;;;4.60;2.95;;;;;;;;;;5041724;28;20362;-78
2022/07/05 05:06:50;;;;;;;4.53;3.40;;;;;;;;;;5034219;28;20030;-79
2022/07/05 05:09:16;;;;;;;5.50;3.33;;;;;;;;;;5028773;28;20030;-78
2022/07/05 05:11:41;;;;;;;9.85;3.83;;;;;;;;;;5016680;28;20363;-77
2022/07/05 05:14:07;;;;;;;4.65;3.15;;;;;;;;;;5026677;28;20029;-80
2022/07/05 05:16:32;;;;;;;4.90;2.95;;;;;;;;;;5021162;28;20128;-79
2022/07/05 05:18:58;;;;;;;9.98;3.10;;;;;;;;;;5035746;28;20022;-79
2022/07/05 05:21:23;;;;;;;5.90;3.17;;;;;;;;;;5015001;28;20137;-80
2022/07/05 05:23:49;;;;;;;7.32;2.88;;;;;;;;;;5010272;28;20544;-79
2022/07/05 05:26:14;;;;;;;6.22;2.70;;;;;;;;;;5009303;28;20440;-79
2022/07/05 05:28:40;;;;;;;3.08;2.78;;;;;;;;;;5025283;28;20041;-79
2022/07/05 05:31:06;;;;;;;8.50;3.15;;;;;;;;;;5024970;28;20034;-80
2022/07/05 05:33:32;;;;;;;5.82;2.83;;;;;;;;;;5025267;28;20112;-79
2022/07/05 05:35:57;;;;;;;5.60;2.95;;;;;;;;;;5025015;28;20100;-79
2022/07/05 05:38:23;;;;;;;6.72;3.17;;;;;;;;;;5025279;28;20022;-79
2022/07/05 05:40:48;;;;;;;4.00;3.55;;;;;;;;;;5009794;28;20030;-79
2022/07/05 05:43:14;;;;;;;6.82;3.20;;;;;;;;;;5024931;28;20453;-78
2022/07/05 05:45:39;;;;;;;3.35;2.92;;;;;;;;;;5008842;28;20040;-79
2022/07/05 05:48:05;;;;;;;3.72;3.00;;;;;;;;;;5024776;28;20033;-78
2022/07/05 05:50:33;;;;;;;8.48;2.90;;;;;;;;;;5002225;28;20397;-78
2022/07/05 05:53:00;;;;;;;4.32;3.15;;;;;;;;;;5005411;28;20037;-78
2022/07/05 05:55:26;;;;;;;5.97;3.53;;;;;;;;;;5014909;28;20022;-78
2022/07/05 05:57:52;;;;;;;6.28;3.83;;;;;;;;;;5008874;28;20500;-78
2022/07/05 06:00:19;;;;;;;10.13;3.67;;;;;;;;;;5009392;28;20022;-78
2022/07/05 06:02:46;;;;;;;7.25;3.20;;;;;;;;;;5023930;28;20120;-78
2022/07/05 06:05:12;;;;;;;4.32;3.05;;;;;;;;;;5008059;28;20121;-79
2022/07/05 06:07:48;;;;;;;6.22;2.80;;;;;;;;;;5024947;28;20037;-79
2022/07/05 06:10:25;;;;;;;5.38;3.20;;;;;;;;;;5012661;28;20030;-79
2022/07/05 06:12:52;;;;;;;5.45;3.30;;;;;;;;;;5011828;28;20064;-79
2022/07/05 06:15:18;;;;;;;7.05;2.63;;;;;;;;;;5012211;28;20473;-79
2022/07/05 06:17:44;;;;;;;6.57;3.05;;;;;;;;;;5028843;28;20419;-79
2022/07/05 06:20:12;;;;;;;4.40;2.58;;;;;;;;;;5014577;28;20087;-79
2022/07/05 06:22:38;;;;;;;5.97;2.75;;;;;;;;;;5015865;28;20127;-79
2022/07/05 06:25:04;;;;;;;5.00;3.50;;;;;;;;;;5030141;28;20032;-79
2022/07/05 06:27:30;;;;;;;8.32;3.00;;;;;;;;;;5023391;28;20049;-79
2022/07/05 06:29:57;;;;;;;3.33;2.50;;;;;;;;;;5018496;28;20033;-79
2022/07/05 06:32:23;;;;;;;4.50;3.55;;;;;;;;;;5037472;28;20021;-79
2022/07/05 06:34:49;;;;;;;8.35;3.25;;;;;;;;;;5040273;28;20014;-79
2022/07/05 06:37:14;;;;;;;5.10;2.67;;;;;;;;;;5037363;28;20065;-79
2022/07/05 06:39:40;;;;;;;4.60;2.53;;;;;;;;;;5002453;28;20275;-79
2022/07/05 06:42:05;;;;;;;5.20;2.78;;;;;;;;;;5008923;28;20047;-79
2022/07/05 06:44:31;;;;;;;7.78;3.17;;;;;;;;;;5013016;28;20409;-79
2022/07/05 06:46:56;;;;;;;5.90;3.10;;;;;;;;;;5008372;28;20018;-79
2022/07/05 06:49:22;;;;;;;6.68;2.80;;;;;;;;;;5013320;28;20034;-79
2022/07/05 06:51:47;;;;;;;4.82;2.92;;;;;;;;;;5015064;28;20026;-78
2022/07/05 06:54:13;;;;;;;2.85;2.65;;;;;;;;;;5008073;28;20038;-78
2022/07/05 06:56:38;;;;;;;2.97;2.60;;;;;;;;;;5011390;28;20022;-78
2022/07/05 06:59:04;;;;;;;4.43;2.75;;;;;;;;;;5011677;28;20261;-78
2022/07/05 07:01:29;;;;;;;7.18;2.70;;;;;;;;;;5010572;28;20461;-80
2022/07/05 07:03:54;;;;;;;5.38;2.60;;;;;;;;;;5026585;28;20331;-78
2022/07/05 07:06:20;;;;;;;3.00;2.45;;;;;;;;;;5025053;28;20502;-78
2022/07/05 07:11:30;;;;;;;5.57;2.90;;;;;;;;;;5003001;28;20465;-79
2022/07/05 07:13:56;;;;;;;5.20;2.70;;;;;;;;;;5023529;28;20025;-79
2022/07/05 07:16:22;;;;;;;5.55;2.67;;;;;;;;;;5012230;28;20037;-79
2022/07/05 07:18:47;;;;;;;4.72;2.95;;;;;;;;;;5031148;28;20072;-81
2022/07/05 07:21:13;;;;;;;4.00;2.72;;;;;;;;;;5014724;28;20124;-79
2022/07/05 07:23:38;;;;;;;10.88;3.35;;;;;;;;;;5011788;28;20335;-79
2022/07/05 07:26:04;;;;;;;7.07;2.90;;;;;;;;;;5009021;28;20044;-79
2022/07/05 07:28:30;;;;;;;5.40;2.70;;;;;;;;;;5011682;28;20018;-80
2022/07/05 07:30:56;;;;;;;6.57;2.63;;;;;;;;;;5009596;28;20553;-79
2022/07/05 07:33:21;;;;;;;7.57;2.60;;;;;;;;;;5011001;28;20046;-80
2022/07/05 07:35:47;;;;;;;4.50;3.70;;;;;;;;;;5010734;28;20497;-80
2022/07/05 07:38:12;;;;;;;10.95;2.78;;;;;;;;;;5027335;28;20021;-79
2022/07/05 07:40:37;;;;;;;5.57;3.15;;;;;;;;;;5010685;28;20073;-79
2022/07/05 07:43:03;;;;;;;5.35;2.75;;;;;;;;;;5010229;28;20032;-80
2022/07/05 07:45:30;;;;;;;8.82;3.80;;;;;;;;;;5012806;28;20038;-79
2022/07/05 07:47:56;;;;;;;5.30;2.65;;;;;;;;;;5011517;28;20026;-79
2022/07/05 07:50:21;;;;;;;6.72;3.08;;;;;;;;;;5009225;28;20052;-80
2022/07/05 07:52:47;;;;;;;6.35;3.53;;;;;;;;;;5006477;28;20014;-80
2022/07/05 07:55:13;;;;;;;3.33;2.90;;;;;;;;;;5025448;28;20026;-80
2022/07/05 07:57:39;;;;;;;6.47;3.08;;;;;;;;;;5026400;28;20394;-79
2022/07/05 08:00:05;;;;;;;14.70;10.35;;;;;;;;;;5025714;28;20405;-79
2022/07/05 08:02:30;;;;;;;6.70;2.95;;;;;;;;;;5025060;28;20025;-77
2022/07/05 08:04:57;;;;;;;7.32;3.85;;;;;;;;;;5010070;28;20088;-79
2022/07/05 08:07:23;;;;;;;5.82;3.13;;;;;;;;;;5025949;28;20021;-79
2022/07/05 08:09:50;;;;;;;14.52;3.95;;;;;;;;;;5003025;28;20112;-79
2022/07/05 08:12:16;;;;;;;12.00;3.28;;;;;;;;;;5024014;28;20481;-79
2022/07/05 08:14:42;;;;;;;5.35;2.80;;;;;;;;;;5006152;28;20078;-77
2022/07/05 08:17:08;;;;;;;3.28;3.00;;;;;;;;;;5006288;28;20029;-79
2022/07/05 08:22:19;;;;;;;7.70;4.35;;;;;;;;;;5007697;28;20057;-79
2022/07/05 08:24:45;;;;;;;9.20;4.32;;;;;;;;;;5010420;28;20044;-78
2022/07/05 08:27:11;;;;;;;11.30;4.13;;;;;;;;;;5009017;28;20116;-79
2022/07/05 08:29:36;;;;;;;6.63;2.90;;;;;;;;;;5009323;28;20420;-79
2022/07/05 08:32:03;;;;;;;6.18;3.20;;;;;;;;;;5010628;28;20385;-79
2022/07/05 08:34:28;;;;;;;5.45;4.95;;;;;;;;;;5010543;28;20062;-79
2022/07/05 08:36:54;;;;;;;4.03;3.17;;;;;;;;;;5015146;28;20104;-78
2022/07/05 08:39:19;;;;;;;10.35;4.07;;;;;;;;;;5032524;28;20021;-79
2022/07/05 08:41:49;;;;;;;5.65;3.40;;;;;;;;;;5028810;28;20041;-79
2022/07/05 08:44:18;;;;;;;8.07;3.70;;;;;;;;;;5024851;28;20049;-78
2022/07/05 08:46:46;;;;;;;10.13;5.15;;;;;;;;;;5024311;28;20061;-79
2022/07/05 08:49:13;;;;;;;4.97;3.78;;;;;;;;;;5024728;28;20091;-78
2022/07/05 08:51:40;;;;;;;5.57;3.25;;;;;;;;;;5024818;28;20121;-78
2022/07/05 08:54:14;;;;;;;6.10;3.50;;;;;;;;;;5009995;28;20167;-79
2022/07/05 08:56:44;;;;;;;5.68;2.72;;;;;;;;;;5025636;28;20234;-79
2022/07/05 08:59:09;;;;;;;11.63;3.72;;;;;;;;;;5010377;28;20471;-79
2022/07/05 09:01:36;;;;;;;7.55;4.03;;;;;;;;;;5009152;28;20048;-79
2022/07/05 09:04:05;;;;;;;8.63;6.25;;;;;;;;;;5024837;28;20352;-81
2022/07/05 09:06:33;;;;;;;6.18;4.50;;;;;;;;;;5008515;28;20057;-82
2022/07/05 09:08:59;;;;;;;15.35;6.53;;;;;;;;;;5025268;28;20408;-79
2022/07/05 09:11:30;;;;;;;9.80;5.03;;;;;;;;;;5008334;28;20042;-80
2022/07/05 09:13:56;;;;;;;;;;;;;;;;;;5008531;28;20397;-77
2022/07/05 09:16:23;;;;;;;5.07;3.47;;;;;;;;;;5009539;28;19932;-78
2022/07/05 09:18:51;;;;;;;7.63;2.78;;;;;;;;;;5007251;28;20127;-79
2022/07/05 09:21:22;;;;;;;9.70;3.28;;;;;;;;;;5023907;28;20393;-79
2022/07/05 09:24:02;;;;;;;8.73;3.28;;;;;;;;;;5007455;28;20046;-79
2022/07/05 09:26:43;;;;;;;4.30;2.50;;;;;;;;;;5031244;28;20049;-78
2022/07/05 09:29:12;;;;;;;4.07;2.05;;;;;;;;;;5010391;28;20029;-79
2022/07/05 09:31:42;;;;;;;4.40;1.83;;;;;;;;;;5023646;28;20185;-79
2022/07/05 09:34:08;;;;;;;2.05;1.73;;;;;;;;;;5025071;28;20034;-79
2022/07/05 09:36:52;;;;;;;2.72;1.80;;;;;;;;;;5009475;28;20504;-79
2022/07/05 09:39:36;;;;;;;3.67;2.65;;;;;;;;;;5009566;28;20112;-79
2022/07/05 09:42:09;;;;;;;6.35;2.17;;;;;;;;;;5008188;28;20037;-79
2022/07/05 09:44:41;;;;;;;5.28;2.00;;;;;;;;;;5024030;28;20153;-78
2022/07/05 09:47:12;;;;;;;3.15;2.03;;;;;;;;;;5009332;28;20045;-79
2022/07/05 09:49:48;;;;;;;3.28;1.45;;;;;;;;;;5000721;28;20160;-78
2022/07/05 09:52:36;;;;;;;3.08;1.75;;;;;;;;;;5024374;28;20041;-80
2022/07/05 09:55:19;;;;;;;4.45;1.88;;;;;;;;;;5011769;28;20052;-79
2022/07/05 09:57:46;;;;;;;2.33;1.90;;;;;;;;;;5010719;28;20050;-79
2022/07/05 10:00:14;;;;;;;7.63;2.22;;;;;;;;;;5024974;28;20402;-77
2022/07/05 10:02:45;;;;;;;2.38;2.17;;;;;;;;;;5044849;28;20018;-77
2022/07/05 10:05:14;;;;;;;2.20;2.00;;;;;;;;;;5044482;28;20029;-78
2022/07/05 10:07:42;;;;;;;4.57;2.20;;;;;;;;;;5011550;28;20057;-79
2022/07/05 10:10:09;;;;;;;5.05;2.05;;;;;;;;;;5010637;28;20067;-79
2022/07/05 10:12:37;;;;;;;6.80;2.30;;;;;;;;;;5009083;28;20022;-77
2022/07/05 10:15:03;;;;;;;3.45;2.33;;;;;;;;;;5010259;28;20125;-79
2022/07/05 10:17:35;;;;;;;2.58;1.65;;;;;;;;;;5004939;28;20088;-78
2022/07/05 10:20:04;;;;;;;4.20;1.90;;;;;;;;;;5008922;28;20100;-80
2022/07/05 10:22:29;;;;;;;1.92;1.52;;;;;;;;;;5008847;28;20483;-79
2022/07/05 10:24:56;;;;;;;3.05;2.38;;;;;;;;;;5023352;28;20042;-79
2022/07/05 10:27:25;;;;;;;3.95;2.30;;;;;;;;;;5008751;28;20079;-80
2022/07/05 10:29:52;;;;;;;1.98;1.73;;;;;;;;;;5005475;28;20088;-79
2022/07/05 10:32:18;;;;;;;4.70;2.25;;;;;;;;;;5006144;28;20113;-78
2022/07/05 10:34:46;;;;;;;3.90;1.75;;;;;;;;;;5003860;28;20077;-78
2022/07/05 10:37:12;;;;;;;4.20;1.65;;;;;;;;;;4994804;28;20057;-78
2022/07/05 10:39:38;;;;;;;8.18;1.92;;;;;;;;;;4999118;28;20029;-78
2022/07/05 10:42:06;;;;;;;8.88;2.38;;;;;;;;;;5006614;28;20034;-79
2022/07/05 10:44:34;;;;;;;3.08;1.63;;;;;;;;;;5023990;28;20029;-79
2022/07/05 10:47:13;;;;;;;3.03;2.10;;;;;;;;;;5008617;28;20165;-79
2022/07/05 10:49:40;;;;;;;2.45;1.95;;;;;;;;;;5008875;28;20108;-78
2022/07/05 10:52:24;;;;;;;8.40;2.60;;;;;;;;;;5023352;28;20030;-79
2022/07/05 10:55:18;;;;;;;6.00;2.47;;;;;;;;;;5011086;28;20547;-79
2022/07/05 10:58:14;;;;;;;4.63;1.70;;;;;;;;;;5010588;28;20029;-79
2022/07/05 11:00:43;;;;;;;3.60;1.90;;;;;;;;;;5007479;28;20231;-79
2022/07/05 11:03:51;;;;;;;3.00;1.95;;;;;;;;;;5027071;28;20040;-79
2022/07/05 11:06:33;;;;;;;2.40;1.85;;;;;;;;;;5013481;28;20034;-79
2022/07/05 11:11:45;;;;;;;3.78;2.25;;;;;;;;;;5012016;28;20071;-79
2022/07/05 11:14:23;;;;;;;3.50;1.90;;;;;;;;;;5023259;28;20091;-78
2022/07/05 11:17:08;;;;;;;6.38;1.90;;;;;;;;;;4996785;28;20337;-78
2022/07/05 11:19:35;;;;;;;3.53;1.85;;;;;;;;;;5024750;28;20482;-79
2022/07/05 11:22:05;;;;;;;7.57;2.00;;;;;;;;;;4997075;28;20085;-79
2022/07/05 11:24:37;;;;;;;2.60;2.17;;;;;;;;;;5010169;28;20632;-79
2022/07/05 11:27:10;;;;;;;4.72;2.55;;;;;;;;;;5011645;28;20030;-79
2022/07/05 11:29:43;;;;;;;5.32;2.72;;;;;;;;;;5010847;28;20026;-79
2022/07/05 11:32:10;;;;;;;2.65;2.40;;;;;;;;;;5014364;28;20027;-78
2022/07/05 11:34:36;;;;;;;2.65;1.73;;;;;;;;;;5035976;28;20056;-79
2022/07/05 11:37:24;;;;;;;3.58;1.70;;;;;;;;;;5011573;28;20096;-79
2022/07/05 11:40:14;;;;;;;7.60;2.92;;;;;;;;;;5026639;28;20026;-80
2022/07/05 11:42:50;;;;;;;4.32;2.35;;;;;;;;;;4998232;28;20029;-79
2022/07/05 11:45:16;;;;;;;5.70;1.83;;;;;;;;;;5009028;28;20564;-78
2022/07/05 11:47:42;;;;;;;4.68;2.72;;;;;;;;;;5011208;28;20072;-78
2022/07/05 11:50:10;;;;;;;6.38;3.40;;;;;;;;;;5011032;28;20030;-78
2022/07/05 11:52:36;;;;;;;4.20;3.00;;;;;;;;;;5026277;28;20029;-78
2022/07/05 11:55:05;;;;;;;7.40;2.60;;;;;;;;;;5010555;28;20088;-77
2022/07/05 11:57:31;;;;;;;3.60;2.15;;;;;;;;;;5010716;28;20033;-78
2022/07/05 11:59:57;;;;;;;3.33;3.05;;;;;;;;;;5025598;28;20026;-78
2022/07/05 12:02:22;;;;;;;6.25;2.38;;;;;;;;;;5025930;28;20038;-78
2022/07/05 12:04:52;;;;;;;3.53;1.90;;;;;;;;;;5009632;28;20028;-78
2022/07/05 12:07:33;;;;;;;2.30;1.80;;;;;;;;;;5010570;28;20072;-78
2022/07/05 12:12:43;;;;;;;4.90;2.65;;;;;;;;;;5011386;28;19916;-78
2022/07/05 12:15:10;;;;;;;4.18;2.00;;;;;;;;;;5011663;28;20026;-79
2022/07/05 12:17:37;;;;;;;3.08;1.90;;;;;;;;;;5013094;28;20036;-78
2022/07/05 12:20:03;;;;;;;2.30;2.05;;;;;;;;;;5027585;28;20128;-79
2022/07/05 12:22:37;;;;;;;4.88;1.58;;;;;;;;;;5023697;28;20428;-79
2022/07/05 12:25:05;;;;;;;2.13;1.90;;;;;;;;;;5025977;28;20053;-79
2022/07/05 12:27:33;;;;;;;5.30;2.00;;;;;;;;;;5025259;28;20040;-79
2022/07/05 12:29:59;;;;;;;3.33;2.08;;;;;;;;;;5025303;28;20072;-76
2022/07/05 12:32:25;;;;;;;4.25;1.75;;;;;;;;;;5007949;28;20033;-75
2022/07/05 12:34:50;;;;;;;2.40;2.03;;;;;;;;;;5009746;28;20022;-74
2022/07/05 12:37:21;;;;;;;4.78;1.58;;;;;;;;;;5025559;28;20076;-75
2022/07/05 12:39:48;;;;;;;2.30;1.60;;;;;;;;;;5005525;28;20030;-76
2022/07/05 12:42:35;;;;;;;3.15;2.17;;;;;;;;;;5007052;28;20044;-75
2022/07/05 12:45:18;;;;;;;5.07;1.83;;;;;;;;;;5008235;28;20064;-76
2022/07/05 12:47:55;;;;;;;7.20;2.17;;;;;;;;;;5024782;28;20117;-76
2022/07/05 12:50:25;;;;;;;6.60;1.95;;;;;;;;;;5025066;28;20108;-76
2022/07/05 12:58:44;;;;;;;4.20;2.08;;;;;;;;;;5010289;28;20052;-76
2022/07/05 13:01:40;;;;;;;7.38;1.58;;;;;;;;;;5025362;28;20107;-75
2022/07/05 13:04:13;;;;;;;5.00;1.67;;;;;;;;;;5008710;28;20053;-76
2022/07/05 13:06:56;;;;;;;3.53;1.67;;;;;;;;;;4998452;28;20026;-76
2022/07/05 13:09:38;;;;;;;3.33;1.90;;;;;;;;;;5008021;28;20037;-75
2022/07/05 13:12:23;;;;;;;5.85;1.80;;;;;;;;;;5023901;28;20029;-76
2022/07/05 13:14:50;;;;;;;3.20;2.28;;;;;;;;;;4990882;28;20031;-76
2022/07/05 13:17:18;;;;;;;2.33;2.00;;;;;;;;;;4996452;28;20076;-76
2022/07/05 13:19:45;;;;;;;3.08;1.83;;;;;;;;;;5007511;28;20029;-76
2022/07/05 13:22:11;;;;;;;3.50;1.70;;;;;;;;;;5024690;28;20022;-75
2022/07/05 13:24:37;;;;;;;5.85;2.03;;;;;;;;;;5004988;28;20030;-76
2022/07/05 13:27:03;;;;;;;5.85;2.30;;;;;;;;;;4996308;28;20044;-77
2022/07/05 13:29:30;;;;;;;2.22;1.70;;;;;;;;;;5024653;28;20524;-76
2022/07/05 13:31:56;;;;;;;7.47;2.10;;;;;;;;;;5022207;28;20026;-76
2022/07/05 13:34:26;;;;;;;1.40;1.30;;;;;;;;;;5007487;28;20073;-76
2022/07/05 13:36:56;;;;;;;5.05;1.70;;;;;;;;;;5008573;28;20026;-76
2022/07/05 13:39:23;;;;;;;2.33;1.60;;;;;;;;;;5008549;28;20029;-76
2022/07/05 13:41:53;;;;;;;7.35;1.67;;;;;;;;;;5024235;28;20382;-76
2022/07/05 13:44:19;;;;;;;5.20;1.40;;;;;;;;;;4997632;28;20085;-76
2022/07/05 13:46:45;;;;;;;4.18;1.65;;;;;;;;;;4990414;28;20030;-77
2022/07/05 13:49:10;;;;;;;3.55;1.83;;;;;;;;;;4990981;28;20474;-77
2022/07/05 13:51:36;;;;;;;7.07;2.60;;;;;;;;;;4990207;28;20030;-77
2022/07/05 13:54:02;;;;;;;4.65;2.15;;;;;;;;;;4990462;28;20114;-77
2022/07/05 13:56:28;;;;;;;10.52;1.80;;;;;;;;;;5005250;28;20018;-76
2022/07/05 13:58:54;;;;;;;5.32;2.10;;;;;;;;;;4988849;28;20121;-76
2022/07/05 14:01:24;;;;;;;3.72;2.28;;;;;;;;;;5005183;28;20035;-77
2022/07/05 14:03:50;;;;;;;5.45;2.35;;;;;;;;;;4990277;28;20025;-76
2022/07/05 14:06:15;;;;;;;9.23;6.50;;;;;;;;;;4990126;28;20042;-77
2022/07/05 14:08:42;;;;;;;7.18;2.65;;;;;;;;;;4990208;28;20031;-77
2022/07/05 14:11:09;;;;;;;4.60;2.30;;;;;;;;;;4989975;28;20497;-77
2022/07/05 14:13:35;;;;;;;9.90;3.17;;;;;;;;;;4990501;28;20102;-77
2022/07/05 14:16:01;;;;;;;7.05;2.22;;;;;;;;;;4988956;28;20129;-77
2022/07/05 14:18:27;;;;;;;4.90;1.85;;;;;;;;;;5005200;28;20032;-77
2022/07/05 14:20:52;;;;;;;1.50;1.40;;;;;;;;;;4990708;28;20065;-77
2022/07/05 14:23:18;;;;;;;1.65;1.50;;;;;;;;;;5000224;28;20129;-77
2022/07/05 14:25:45;;;;;;;6.28;1.65;;;;;;;;;;5008646;28;20285;-77
2022/07/05 14:28:10;;;;;;;3.45;1.73;;;;;;;;;;5024751;28;20466;-77
2022/07/05 14:30:43;;;;;;;6.78;1.73;;;;;;;;;;5028258;28;20096;-76
2022/07/05 14:33:14;;;;;;;3.05;1.73;;;;;;;;;;5011670;28;20417;-76
2022/07/05 14:35:40;;;;;;;4.85;1.75;;;;;;;;;;5028453;28;20032;-77
2022/07/05 14:38:07;;;;;;;2.85;1.70;;;;;;;;;;5028404;28;20033;-76
2022/07/05 14:40:33;;;;;;;4.40;1.67;;;;;;;;;;5028487;28;20021;-77
2022/07/05 14:42:59;;;;;;;6.40;1.95;;;;;;;;;;5028632;28;20033;-77
2022/07/05 14:45:25;;;;;;;1.98;1.65;;;;;;;;;;5012044;28;20029;-77
2022/07/05 14:47:52;;;;;;;7.38;2.30;;;;;;;;;;5013172;28;20386;-77
2022/07/05 14:50:18;;;;;;;3.80;1.67;;;;;;;;;;5013782;28;20048;-77
2022/07/05 14:52:46;;;;;;;7.60;1.98;;;;;;;;;;5029191;28;20022;-76
2022/07/05 14:55:12;;;;;;;3.22;1.75;;;;;;;;;;5012925;28;20445;-76
2022/07/05 14:57:39;;;;;;;5.03;1.85;;;;;;;;;;5027460;28;20032;-76
2022/07/05 15:00:07;;;;;;;5.82;1.67;;;;;;;;;;5045604;28;20029;-75
2022/07/05 15:02:33;;;;;;;1.67;1.45;;;;;;;;;;5029388;28;20056;-76
2022/07/05 15:04:59;;;;;;;4.38;1.48;;;;;;;;;;5019410;28;20103;-76